createdAt,value
2023-02-27T00:00:53.158Z,60.69
2023-02-27T00:03:20.108Z,60.93
2023-02-27T00:05:46.826Z,60.08
2023-02-27T00:08:13.614Z,58.14
2023-02-27T00:10:40.401Z,56.97
2023-02-27T00:13:07.228Z,57.90
2023-02-27T00:15:34.131Z,57.67
2023-02-27T00:18:01.111Z,56.36
2023-02-27T00:20:28.663Z,56.21
2023-02-27T00:22:55.168Z,56.74
2023-02-27T00:25:21.752Z,57.68
2023-02-27T00:27:48.455Z,57.16
2023-02-27T00:30:15.715Z,55.85
2023-02-27T00:32:42.666Z,56.49
2023-02-27T00:35:10.334Z,56.45
2023-02-27T00:37:37.296Z,56.13
2023-02-27T00:40:05.330Z,55.92
2023-02-27T00:42:32.241Z,56.34
2023-02-27T00:44:58.848Z,56.75
2023-02-27T00:47:25.276Z,57.73
2023-02-27T00:49:51.840Z,57.18
2023-02-27T00:52:18.223Z,56.28
2023-02-27T00:54:45.058Z,56.16
2023-02-27T00:57:11.721Z,56.39
2023-02-27T00:59:38.259Z,57.31
2023-02-27T01:02:05.267Z,59.15
2023-02-27T01:04:31.769Z,58.82
2023-02-27T01:06:58.251Z,59.78
2023-02-27T01:09:25.000Z,61.04
2023-02-27T01:11:51.861Z,59.86
2023-02-27T01:14:18.380Z,57.58
2023-02-27T01:16:44.811Z,56.64
2023-02-27T01:19:11.446Z,55.87
2023-02-27T01:21:38.143Z,55.50
2023-02-27T01:24:04.788Z,55.78
2023-02-27T01:26:31.302Z,56.17
2023-02-27T01:28:57.768Z,55.95
2023-02-27T01:31:26.054Z,56.27
2023-02-27T01:33:53.689Z,56.19
2023-02-27T01:36:20.772Z,56.37
2023-02-27T01:38:47.596Z,56.57
2023-02-27T01:41:14.320Z,56.82
2023-02-27T01:43:57.725Z,56.82
2023-02-27T01:46:24.645Z,57.20
2023-02-27T01:48:54.398Z,57.51
2023-02-27T01:51:21.595Z,57.38
2023-02-27T01:53:49.286Z,57.29
2023-02-27T01:56:20.655Z,57.59
2023-02-27T01:58:48.842Z,57.34
2023-02-27T02:01:16.242Z,57.73
2023-02-27T02:03:45.765Z,57.62
2023-02-27T02:06:12.793Z,58.04
2023-02-27T02:08:42.033Z,57.75
2023-02-27T02:11:09.215Z,57.71
2023-02-27T02:13:37.158Z,56.94
2023-02-27T02:16:18.881Z,57.04
2023-02-27T02:18:51.496Z,56.93
2023-02-27T02:21:24.362Z,57.30
2023-02-27T02:23:57.401Z,57.50
2023-02-27T02:26:39.248Z,57.75
2023-02-27T02:29:09.648Z,57.67
2023-02-27T02:31:54.546Z,57.63
2023-02-27T02:34:33.201Z,59.23
2023-02-27T02:37:18.418Z,59.87
2023-02-27T02:39:58.815Z,59.30
2023-02-27T02:42:27.219Z,59.54
2023-02-27T02:45:05.773Z,59.10
2023-02-27T02:47:35.712Z,58.55
2023-02-27T02:50:20.904Z,58.23
2023-02-27T02:53:06.016Z,58.71
2023-02-27T02:55:34.748Z,59.08
2023-02-27T02:58:20.102Z,59.94
2023-02-27T03:00:56.756Z,60.37
2023-02-27T03:03:28.480Z,60.84
2023-02-27T03:05:57.977Z,61.00
2023-02-27T03:08:30.824Z,60.73
2023-02-27T03:11:03.763Z,60.46
2023-02-27T03:13:37.484Z,60.20
2023-02-27T03:16:07.029Z,61.30
2023-02-27T03:18:56.791Z,63.20
2023-02-27T03:21:37.700Z,65.24
2023-02-27T03:24:07.195Z,65.03
2023-02-27T03:26:35.247Z,63.83
2023-02-27T03:29:04.361Z,62.18
2023-02-27T03:31:38.495Z,61.90
2023-02-27T03:34:31.501Z,62.17
2023-02-27T03:36:58.398Z,62.73
2023-02-27T03:39:25.092Z,63.88
2023-02-27T03:42:11.893Z,64.45
2023-02-27T03:44:52.354Z,63.28
2023-02-27T03:47:19.841Z,61.66
2023-02-27T03:49:46.548Z,60.59
2023-02-27T03:52:14.059Z,60.02
2023-02-27T03:54:45.413Z,59.78
2023-02-27T03:57:15.145Z,59.40
2023-02-27T03:59:42.458Z,59.45
2023-02-27T04:02:09.440Z,59.25
2023-02-27T04:04:35.991Z,59.39
2023-02-27T04:07:23.881Z,60.00
2023-02-27T04:09:50.474Z,60.36
2023-02-27T04:12:16.883Z,60.23
2023-02-27T04:14:50.790Z,60.60
2023-02-27T04:17:21.829Z,60.83
2023-02-27T04:19:59.811Z,60.64
2023-02-27T04:22:27.486Z,60.38
2023-02-27T04:25:03.216Z,60.05
2023-02-27T04:27:39.164Z,59.84
2023-02-27T04:30:14.825Z,59.73
2023-02-27T04:32:47.478Z,59.33
2023-02-27T04:35:34.619Z,58.53
2023-02-27T04:38:04.343Z,58.98
2023-02-27T04:40:38.338Z,59.79
2023-02-27T04:43:07.580Z,59.32
2023-02-27T04:45:35.632Z,59.22
2023-02-27T04:48:05.854Z,59.23
2023-02-27T04:50:45.469Z,59.08
2023-02-27T04:53:18.301Z,58.51
2023-02-27T04:55:50.195Z,58.06
2023-02-27T04:58:32.263Z,57.61
2023-02-27T05:01:01.808Z,57.64
2023-02-27T05:03:32.882Z,58.43
2023-02-27T05:06:00.984Z,59.03
2023-02-27T05:08:48.853Z,58.87
2023-02-27T05:11:18.289Z,58.05
2023-02-27T05:13:47.761Z,57.93
2023-02-27T05:16:19.785Z,58.62
2023-02-27T05:18:46.900Z,57.88
2023-02-27T05:21:33.619Z,57.45
2023-02-27T05:24:12.456Z,57.30
2023-02-27T05:27:06.514Z,57.61
2023-02-27T05:29:56.295Z,57.44
2023-02-27T05:32:30.970Z,58.52
2023-02-27T05:34:58.488Z,59.36
2023-02-27T05:37:34.093Z,58.93
2023-02-27T05:40:09.101Z,57.98
2023-02-27T05:42:43.712Z,57.92
2023-02-27T05:45:15.184Z,57.75
2023-02-27T05:47:44.966Z,57.75
2023-02-27T05:50:19.875Z,58.37
2023-02-27T05:52:49.633Z,58.89
2023-02-27T05:55:22.726Z,59.13
2023-02-27T05:57:54.163Z,59.00
2023-02-27T06:00:37.053Z,58.32
2023-02-27T06:03:03.778Z,57.88
2023-02-27T06:05:30.492Z,58.12
2023-02-27T06:07:57.905Z,58.84
2023-02-27T06:10:24.980Z,58.95
2023-02-27T06:12:51.643Z,59.34
2023-02-27T06:15:20.076Z,59.29
2023-02-27T06:17:46.657Z,59.09
2023-02-27T06:20:13.106Z,59.08
2023-02-27T06:22:40.206Z,59.14
2023-02-27T06:25:07.054Z,59.01
2023-02-27T06:27:33.585Z,58.79
2023-02-27T06:30:00.108Z,59.06
2023-02-27T06:32:26.639Z,58.51
2023-02-27T06:34:53.498Z,58.29
2023-02-27T06:37:21.719Z,58.30
2023-02-27T06:39:48.304Z,58.41
2023-02-27T06:42:15.212Z,58.21
2023-02-27T06:44:42.614Z,57.82
2023-02-27T06:47:09.417Z,57.90
2023-02-27T06:49:35.959Z,57.77
2023-02-27T06:52:02.412Z,58.03
2023-02-27T06:54:29.338Z,58.73
2023-02-27T06:56:56.522Z,59.04
2023-02-27T06:59:22.946Z,59.41
2023-02-27T07:01:49.750Z,59.62
2023-02-27T07:04:16.629Z,59.53
2023-02-27T07:07:35.711Z,60.27
2023-02-27T07:09:30.476Z,59.44
2023-02-27T07:11:57.060Z,58.93
2023-02-27T07:14:23.390Z,60.43
2023-02-27T07:16:53.951Z,61.88
2023-02-27T07:19:24.441Z,63.00
2023-02-27T07:21:50.994Z,64.13
2023-02-27T07:24:17.600Z,64.17
2023-02-27T07:26:43.962Z,64.67
2023-02-27T07:29:10.437Z,67.71
2023-02-27T07:31:36.923Z,71.87
2023-02-27T07:34:03.754Z,77.88
2023-02-27T07:36:33.492Z,80.90
2023-02-27T07:39:00.006Z,81.41
2023-02-27T07:41:30.619Z,79.02
2023-02-27T07:43:57.870Z,80.05
2023-02-27T07:46:27.822Z,80.71
2023-02-27T07:48:54.827Z,81.58
2023-02-27T07:51:21.974Z,82.47
2023-02-27T07:53:48.655Z,80.02
2023-02-27T07:56:15.711Z,77.63
2023-02-27T07:58:42.191Z,78.24
2023-02-27T08:01:08.729Z,76.42
2023-02-27T08:03:35.338Z,75.78
2023-02-27T08:06:02.422Z,76.88
2023-02-27T08:08:29.589Z,79.79
2023-02-27T08:10:56.372Z,79.57
2023-02-27T08:13:35.972Z,79.66
2023-02-27T08:16:09.619Z,79.69
2023-02-27T08:18:36.114Z,75.69
2023-02-27T08:21:04.908Z,69.72
2023-02-27T08:23:34.469Z,67.21
2023-02-27T08:26:01.759Z,66.21
2023-02-27T08:28:28.413Z,64.96
2023-02-27T08:30:55.649Z,66.66
2023-02-27T08:33:22.708Z,68.54
2023-02-27T08:35:49.244Z,68.37
2023-02-27T08:38:15.967Z,66.55
2023-02-27T08:40:43.623Z,66.59
2023-02-27T08:43:10.177Z,65.33
2023-02-27T08:45:37.097Z,68.32
2023-02-27T08:48:03.723Z,68.71
2023-02-27T08:50:30.418Z,68.76
2023-02-27T08:52:57.074Z,70.18
2023-02-27T08:55:23.682Z,72.20
2023-02-27T08:57:50.141Z,71.38
2023-02-27T09:00:18.083Z,69.36
2023-02-27T09:02:44.720Z,66.98
2023-02-27T09:05:11.443Z,64.13
2023-02-27T09:07:38.129Z,61.29
2023-02-27T09:10:07.239Z,58.47
2023-02-27T09:12:33.733Z,58.39
2023-02-27T09:15:00.298Z,56.79
2023-02-27T09:17:27.028Z,58.69
2023-02-27T09:19:55.899Z,59.35
2023-02-27T09:22:23.770Z,60.31
2023-02-27T09:24:51.187Z,57.79
2023-02-27T09:27:17.850Z,54.72
2023-02-27T09:29:44.649Z,54.38
2023-02-27T09:32:11.484Z,55.02
2023-02-27T09:34:39.286Z,56.64
2023-02-27T09:37:05.731Z,53.85
2023-02-27T09:39:32.485Z,55.24
2023-02-27T09:42:07.621Z,55.22
2023-02-27T09:44:47.696Z,54.81
2023-02-27T09:47:16.907Z,54.12
2023-02-27T09:49:57.557Z,54.68
2023-02-27T09:52:24.230Z,52.50
2023-02-27T09:54:51.190Z,49.96
2023-02-27T09:57:23.668Z,50.40
2023-02-27T10:00:16.582Z,52.15
2023-02-27T10:03:02.052Z,49.99
2023-02-27T10:05:35.641Z,50.39
2023-02-27T10:08:06.875Z,51.80
2023-02-27T10:10:46.206Z,51.73
2023-02-27T10:13:31.520Z,52.46
2023-02-27T10:15:59.956Z,50.36
2023-02-27T10:18:46.820Z,48.88
2023-02-27T10:21:16.092Z,51.17
2023-02-27T10:23:46.600Z,51.47
2023-02-27T10:26:21.643Z,51.34
2023-02-27T10:28:48.540Z,49.47
2023-02-27T10:31:22.656Z,50.54
2023-02-27T10:33:51.870Z,51.98
2023-02-27T10:36:32.515Z,49.75
2023-02-27T10:39:02.905Z,48.24
2023-02-27T10:41:30.693Z,47.65
2023-02-27T10:43:58.958Z,47.40
2023-02-27T10:46:27.677Z,46.51
2023-02-27T10:48:54.812Z,47.84
2023-02-27T10:51:31.806Z,49.16
2023-02-27T10:54:17.303Z,49.28
2023-02-27T10:56:55.959Z,50.50
2023-02-27T10:59:40.467Z,51.30
2023-02-27T11:02:21.684Z,51.52
2023-02-27T11:04:55.108Z,51.95
2023-02-27T11:07:32.777Z,53.30
2023-02-27T11:10:01.173Z,54.14
2023-02-27T11:12:29.535Z,54.01
2023-02-27T11:14:57.407Z,52.51
2023-02-27T11:17:32.821Z,52.17
2023-02-27T11:20:01.334Z,50.76
2023-02-27T11:22:29.739Z,50.91
2023-02-27T11:25:17.136Z,51.49
2023-02-27T11:27:46.024Z,52.00
2023-02-27T11:30:31.784Z,51.00
2023-02-27T11:33:01.078Z,51.83
2023-02-27T11:35:33.152Z,51.25
2023-02-27T11:38:07.785Z,51.33
2023-02-27T11:40:37.224Z,49.52
2023-02-27T11:43:05.965Z,49.36
2023-02-27T11:46:05.022Z,49.78
2023-02-27T11:48:31.065Z,49.32
2023-02-27T11:51:09.658Z,47.63
2023-02-27T11:53:48.492Z,47.58
2023-02-27T11:56:17.621Z,48.20
2023-02-27T11:58:52.399Z,46.89
2023-02-27T12:01:25.454Z,48.42
2023-02-27T12:04:01.743Z,48.00
2023-02-27T12:06:43.659Z,46.25
2023-02-27T12:09:21.900Z,45.69
2023-02-27T12:11:50.102Z,47.59
2023-02-27T12:14:33.248Z,46.76
2023-02-27T12:17:04.779Z,46.19
2023-02-27T12:19:38.517Z,46.35
2023-02-27T12:22:09.632Z,46.13
2023-02-27T12:24:36.267Z,45.74
2023-02-27T12:27:13.868Z,46.68
2023-02-27T12:29:43.887Z,44.55
2023-02-27T12:32:26.081Z,43.68
2023-02-27T12:35:15.799Z,46.40
2023-02-27T12:37:42.601Z,46.90
2023-02-27T12:40:14.761Z,44.75
2023-02-27T12:42:59.717Z,42.79
2023-02-27T12:45:45.291Z,41.25
2023-02-27T12:48:12.208Z,43.31
2023-02-27T12:50:53.341Z,44.42
2023-02-27T12:53:27.416Z,42.59
2023-02-27T12:56:12.685Z,44.18
2023-02-27T12:58:56.018Z,45.85
2023-02-27T13:01:37.850Z,45.95
2023-02-27T13:04:18.258Z,45.96
2023-02-27T13:06:50.242Z,44.79
2023-02-27T13:09:21.130Z,42.22
2023-02-27T13:12:03.241Z,43.71
2023-02-27T13:14:32.866Z,43.96
2023-02-27T13:17:02.521Z,44.22
2023-02-27T13:19:32.365Z,44.56
2023-02-27T13:22:17.986Z,45.56
2023-02-27T13:24:48.765Z,45.36
2023-02-27T13:27:28.927Z,42.80
2023-02-27T13:30:06.115Z,41.21
2023-02-27T13:32:44.325Z,42.33
2023-02-27T13:35:24.020Z,40.79
2023-02-27T13:37:54.410Z,41.04
2023-02-27T13:40:32.851Z,43.25
2023-02-27T13:43:02.140Z,45.34
2023-02-27T13:45:48.581Z,47.01
2023-02-27T13:48:42.385Z,46.68
2023-02-27T13:51:11.242Z,46.74
2023-02-27T13:53:39.367Z,46.62
2023-02-27T13:56:23.585Z,45.49
2023-02-27T13:58:50.905Z,45.09
2023-02-27T14:01:19.985Z,46.20
2023-02-27T14:03:58.700Z,47.75
2023-02-27T14:06:26.407Z,46.61
2023-02-27T14:09:08.789Z,47.84
2023-02-27T14:11:42.973Z,47.20
2023-02-27T14:14:30.181Z,48.05
2023-02-27T14:16:57.719Z,49.89
2023-02-27T14:19:25.824Z,51.03
2023-02-27T14:21:54.523Z,51.23
2023-02-27T14:24:24.473Z,51.73
2023-02-27T14:26:52.693Z,51.18
2023-02-27T14:29:31.287Z,50.40
2023-02-27T14:32:01.008Z,51.56
2023-02-27T14:34:28.285Z,52.60
2023-02-27T14:36:56.779Z,53.13
2023-02-27T14:39:26.432Z,53.28
2023-02-27T14:41:56.323Z,54.04
2023-02-27T14:44:28.576Z,53.20
2023-02-27T14:46:58.258Z,53.80
2023-02-27T14:49:35.924Z,52.73
2023-02-27T14:52:21.362Z,53.07
2023-02-27T14:54:49.624Z,53.19
2023-02-27T14:57:19.100Z,53.11
2023-02-27T14:59:48.447Z,52.91
2023-02-27T15:02:44.947Z,54.79
2023-02-27T15:05:16.248Z,54.23
2023-02-27T15:07:47.351Z,52.50
2023-02-27T15:10:26.492Z,51.91
2023-02-27T15:12:53.196Z,52.31
2023-02-27T15:15:21.912Z,51.08
2023-02-27T15:17:51.354Z,50.33
2023-02-27T15:20:26.931Z,50.33
2023-02-27T15:22:54.522Z,50.20
2023-02-27T15:25:34.763Z,52.10
2023-02-27T15:28:02.973Z,53.08
2023-02-27T15:30:29.901Z,53.71
2023-02-27T15:32:56.927Z,53.43
2023-02-27T15:35:24.987Z,52.83
2023-02-27T15:37:53.243Z,51.44
2023-02-27T15:40:27.827Z,51.86
2023-02-27T15:42:55.531Z,50.34
2023-02-27T15:45:24.922Z,49.63
2023-02-27T15:47:53.076Z,48.74
2023-02-27T15:50:19.940Z,47.74
2023-02-27T15:52:50.907Z,47.76
2023-02-27T15:55:22.526Z,48.12
2023-02-27T15:58:02.047Z,48.39
2023-02-27T16:00:31.032Z,47.83
2023-02-27T16:02:58.919Z,47.94
2023-02-27T16:05:29.335Z,47.72
2023-02-27T16:07:56.333Z,47.16
2023-02-27T16:10:28.878Z,47.25
2023-02-27T16:12:57.256Z,47.52
2023-02-27T16:15:30.306Z,48.08
2023-02-27T16:17:56.896Z,48.26
2023-02-27T16:20:37.765Z,47.64
2023-02-27T16:23:04.981Z,47.04
2023-02-27T16:25:32.830Z,45.96
2023-02-27T16:27:59.515Z,45.27
2023-02-27T16:30:25.979Z,45.15
2023-02-27T16:33:00.218Z,44.85
2023-02-27T16:35:27.577Z,44.21
2023-02-27T16:38:00.969Z,44.07
2023-02-27T16:40:29.104Z,44.13
2023-02-27T16:42:56.717Z,43.78
2023-02-27T16:45:25.392Z,44.13
2023-02-27T16:47:54.022Z,43.89
2023-02-27T16:50:30.253Z,43.73
2023-02-27T16:52:57.710Z,43.90
2023-02-27T16:55:25.815Z,43.79
2023-02-27T16:57:52.635Z,44.04
2023-02-27T17:00:19.671Z,43.85
2023-02-27T17:02:49.445Z,44.05
2023-02-27T17:05:16.963Z,44.39
2023-02-27T17:07:44.877Z,44.03
2023-02-27T17:10:15.655Z,44.24
2023-02-27T17:12:44.360Z,44.39
2023-02-27T17:15:12.360Z,44.81
2023-02-27T17:17:39.604Z,44.49
2023-02-27T17:20:10.335Z,45.22
2023-02-27T17:22:44.314Z,44.74
2023-02-27T17:25:12.569Z,44.64
2023-02-27T17:27:46.928Z,44.67
2023-02-27T17:30:14.960Z,45.25
2023-02-27T17:32:41.911Z,45.45
2023-02-27T17:35:09.447Z,45.56
2023-02-27T17:37:43.525Z,45.52
2023-02-27T17:40:12.377Z,45.93
2023-02-27T17:42:40.821Z,45.66
2023-02-27T17:45:08.103Z,45.51
2023-02-27T17:47:46.247Z,45.08
2023-02-27T17:50:13.460Z,44.85
2023-02-27T17:52:40.977Z,45.13
2023-02-27T17:55:10.222Z,45.53
2023-02-27T17:57:39.996Z,45.28
2023-02-27T18:00:09.075Z,45.26
2023-02-27T18:02:46.373Z,45.18
2023-02-27T18:05:13.227Z,45.33
2023-02-27T18:07:40.310Z,47.94
2023-02-27T18:10:09.127Z,47.91
2023-02-27T18:12:36.516Z,47.97
2023-02-27T18:15:04.394Z,48.43
2023-02-27T18:17:31.920Z,48.34
2023-02-27T18:19:59.776Z,48.29
2023-02-27T18:22:27.505Z,47.98
2023-02-27T18:24:55.794Z,48.46
2023-02-27T18:27:30.473Z,48.45
2023-02-27T18:30:06.898Z,48.07
2023-02-27T18:32:34.156Z,47.91
2023-02-27T18:35:06.069Z,47.78
2023-02-27T18:37:33.773Z,47.71
2023-02-27T18:40:01.798Z,47.74
2023-02-27T18:42:29.351Z,47.49
2023-02-27T18:44:56.439Z,46.85
2023-02-27T18:47:24.488Z,46.41
2023-02-27T18:49:52.482Z,46.15
2023-02-27T18:52:22.506Z,46.40
2023-02-27T18:54:50.694Z,46.47
2023-02-27T18:57:17.460Z,46.60
2023-02-27T18:59:48.199Z,46.69
2023-02-27T19:02:20.019Z,47.23
2023-02-27T19:04:51.415Z,47.15
2023-02-27T19:07:20.055Z,46.75
2023-02-27T19:09:47.870Z,47.52
2023-02-27T19:12:15.294Z,47.45
2023-02-27T19:14:42.416Z,47.48
2023-02-27T19:17:10.832Z,47.49
2023-02-27T19:19:39.136Z,47.10
2023-02-27T19:22:08.005Z,46.81
2023-02-27T19:24:38.884Z,46.78
2023-02-27T19:27:07.564Z,46.43
2023-02-27T19:29:35.011Z,45.92
2023-02-27T19:32:02.560Z,46.61
2023-02-27T19:34:30.924Z,47.12
2023-02-27T19:36:58.067Z,46.78
2023-02-27T19:39:26.922Z,46.93
2023-02-27T19:41:59.604Z,48.19
2023-02-27T19:44:27.101Z,49.11
2023-02-27T19:46:58.509Z,48.72
2023-02-27T19:49:26.184Z,48.48
2023-02-27T19:51:53.461Z,48.98
2023-02-27T19:54:39.672Z,51.16
2023-02-27T19:57:07.775Z,51.29
2023-02-27T19:59:37.093Z,51.00
2023-02-27T20:02:04.348Z,50.58
2023-02-27T20:04:32.859Z,50.17
2023-02-27T20:06:59.884Z,49.87
2023-02-27T20:09:28.130Z,50.25
2023-02-27T20:11:56.953Z,49.76
2023-02-27T20:14:24.066Z,48.80
2023-02-27T20:16:53.381Z,48.97
2023-02-27T20:19:21.082Z,48.60
2023-02-27T20:21:49.199Z,48.28
2023-02-27T20:24:18.426Z,48.03
2023-02-27T20:26:48.388Z,48.13
2023-02-27T20:29:17.329Z,47.72
2023-02-27T20:31:53.337Z,47.37
2023-02-27T20:34:24.991Z,47.52
2023-02-27T20:36:53.428Z,48.07
2023-02-27T20:39:20.757Z,48.20
2023-02-27T20:41:48.603Z,48.06
2023-02-27T20:44:16.845Z,48.23
2023-02-27T20:46:45.419Z,48.42
2023-02-27T20:49:22.407Z,48.41
2023-02-27T20:51:49.802Z,48.33
2023-02-27T20:54:23.894Z,48.78
2023-02-27T20:56:55.206Z,48.66
2023-02-27T20:59:23.804Z,48.93
2023-02-27T21:01:54.206Z,48.80
2023-02-27T21:04:23.018Z,48.77
2023-02-27T21:06:54.056Z,49.17
2023-02-27T21:09:21.184Z,48.88
2023-02-27T21:11:48.448Z,48.56
2023-02-27T21:14:24.590Z,48.45
2023-02-27T21:16:51.132Z,47.85
2023-02-27T21:19:18.238Z,48.67
2023-02-27T21:21:46.710Z,49.73
2023-02-27T21:24:16.313Z,49.30
2023-02-27T21:26:45.194Z,49.08
2023-02-27T21:29:14.612Z,49.35
2023-02-27T21:31:48.631Z,49.61
2023-02-27T21:34:18.446Z,49.51
2023-02-27T21:36:46.138Z,50.01
2023-02-27T21:39:17.609Z,50.61
2023-02-27T21:41:45.314Z,50.82
2023-02-27T21:44:20.287Z,50.39
2023-02-27T21:46:47.917Z,50.80
2023-02-27T21:49:28.097Z,50.91
2023-02-27T21:51:55.061Z,50.63
2023-02-27T21:54:21.752Z,50.25
2023-02-27T21:56:49.377Z,49.64
2023-02-27T21:59:16.608Z,50.15
2023-02-27T22:01:47.455Z,50.86
2023-02-27T22:04:15.357Z,50.69
2023-02-27T22:06:42.747Z,51.76
2023-02-27T22:09:09.582Z,53.17
2023-02-27T22:11:41.037Z,53.25
2023-02-27T22:14:08.551Z,53.09
2023-02-27T22:16:35.211Z,53.00
2023-02-27T22:19:12.807Z,52.81
2023-02-27T22:21:41.815Z,52.87
2023-02-27T22:24:13.761Z,52.96
2023-02-27T22:26:42.057Z,52.54
2023-02-27T22:29:17.254Z,52.76
2023-02-27T22:31:44.508Z,52.23
2023-02-27T22:34:15.835Z,51.94
2023-02-27T22:36:42.599Z,52.57
2023-02-27T22:39:11.259Z,52.84
2023-02-27T22:41:39.825Z,52.62
2023-02-27T22:44:08.755Z,53.19
2023-02-27T22:46:37.339Z,53.18
2023-02-27T22:49:16.637Z,52.73
2023-02-27T22:51:44.536Z,52.58
2023-02-27T22:54:13.576Z,52.30
2023-02-27T22:56:42.708Z,52.13
2023-02-27T22:59:10.027Z,52.04
2023-02-27T23:01:58.733Z,51.21
2023-02-27T23:04:26.470Z,52.75
2023-02-27T23:06:55.373Z,53.63
2023-02-27T23:09:25.624Z,53.64
2023-02-27T23:11:52.886Z,52.96
2023-02-27T23:14:22.298Z,53.81
2023-02-27T23:16:49.624Z,54.03
2023-02-27T23:19:18.084Z,53.45
2023-02-27T23:21:46.852Z,52.80
2023-02-27T23:24:15.296Z,52.82
2023-02-27T23:26:44.377Z,53.17
2023-02-27T23:29:34.512Z,53.26
2023-02-27T23:32:02.055Z,53.64
2023-02-27T23:34:43.844Z,53.65
2023-02-27T23:37:16.314Z,53.40
2023-02-27T23:39:45.024Z,53.82
2023-02-27T23:42:30.580Z,53.79
2023-02-27T23:45:16.141Z,53.03
2023-02-27T23:47:44.208Z,52.76
2023-02-27T23:50:12.600Z,53.37
2023-02-27T23:52:39.905Z,53.42
2023-02-27T23:55:25.910Z,53.35
2023-02-27T23:57:54.869Z,53.37
